createdAt,value
2019-02-08T00:00:03.658Z,9.90
2019-02-08T00:02:54.986Z,9.90
2019-02-08T00:05:26.951Z,9.90
2019-02-08T00:07:58.977Z,9.90
2019-02-08T00:10:30.913Z,9.90
2019-02-08T00:13:03.021Z,9.90
2019-02-08T00:15:35.134Z,9.90
2019-02-08T00:18:08.683Z,9.90
2019-02-08T00:20:40.767Z,9.90
2019-02-08T00:23:12.592Z,9.90
2019-02-08T00:25:44.690Z,10.00
2019-02-08T00:28:16.478Z,9.90
2019-02-08T00:30:48.560Z,10.00
2019-02-08T00:33:20.601Z,9.90
2019-02-08T00:35:52.530Z,10.00
2019-02-08T00:38:25.065Z,10.00
2019-02-08T00:40:56.948Z,9.90
2019-02-08T00:43:28.789Z,9.90
2019-02-08T00:46:00.553Z,9.90
2019-02-08T00:48:32.422Z,9.90
2019-02-08T00:51:05.240Z,9.90
2019-02-08T00:53:37.018Z,9.90
2019-02-08T00:56:08.885Z,9.80
2019-02-08T00:58:40.789Z,9.90
2019-02-08T01:01:12.572Z,9.90
2019-02-08T01:03:44.447Z,9.90
2019-02-08T01:06:16.273Z,9.80
2019-02-08T01:08:48.111Z,9.80
2019-02-08T01:11:20.092Z,9.80
2019-02-08T01:13:52.167Z,9.80
2019-02-08T01:16:24.059Z,9.80
2019-02-08T01:18:55.900Z,9.80
2019-02-08T01:21:27.704Z,9.80
2019-02-08T01:23:59.726Z,9.90
2019-02-08T01:26:31.587Z,9.80
2019-02-08T01:29:03.498Z,8.50
2019-02-08T01:31:35.360Z,9.80
2019-02-08T01:34:07.409Z,9.80
2019-02-08T01:36:39.259Z,9.80
2019-02-08T01:39:11.057Z,9.80
2019-02-08T01:41:43.025Z,9.80
2019-02-08T01:44:14.992Z,9.80
2019-02-08T01:46:46.924Z,9.70
2019-02-08T01:49:18.710Z,9.70
2019-02-08T01:51:50.640Z,9.60
2019-02-08T01:54:22.637Z,9.60
2019-02-08T01:56:54.598Z,9.50
2019-02-08T01:59:26.439Z,9.50
2019-02-08T02:01:58.334Z,9.40
2019-02-08T02:04:30.342Z,9.40
2019-02-08T02:07:02.239Z,9.30
2019-02-08T02:09:34.107Z,9.30
2019-02-08T02:12:06.244Z,9.20
2019-02-08T02:14:38.048Z,9.20
2019-02-08T02:17:09.952Z,9.20
2019-02-08T02:19:41.853Z,9.10
2019-02-08T02:22:13.695Z,9.10
2019-02-08T02:24:45.541Z,9.10
2019-02-08T02:27:17.349Z,9.10
2019-02-08T02:29:49.241Z,9.10
2019-02-08T02:32:21.036Z,9.10
2019-02-08T02:34:53.155Z,9.10
2019-02-08T02:37:25.161Z,9.20
2019-02-08T02:39:57.204Z,9.20
2019-02-08T02:42:29.158Z,9.20
2019-02-08T02:45:00.968Z,9.20
2019-02-08T02:47:32.842Z,9.30
2019-02-08T02:50:05.897Z,9.20
2019-02-08T02:52:37.848Z,9.30
2019-02-08T02:55:11.553Z,9.30
2019-02-08T02:57:43.443Z,9.30
2019-02-08T03:00:20.997Z,9.30
2019-02-08T03:02:52.807Z,9.30
2019-02-08T03:05:24.751Z,9.20
2019-02-08T03:07:56.683Z,9.20
2019-02-08T03:10:28.520Z,9.20
2019-02-08T03:13:00.535Z,9.20
2019-02-08T03:15:32.326Z,9.20
2019-02-08T03:18:05.062Z,9.20
2019-02-08T03:20:37.119Z,9.20
2019-02-08T03:23:08.951Z,9.20
2019-02-08T03:25:40.961Z,9.20
2019-02-08T03:28:12.827Z,9.30
2019-02-08T03:30:50.292Z,9.20
2019-02-08T03:33:22.247Z,9.20
2019-02-08T03:35:54.059Z,9.20
2019-02-08T03:38:25.923Z,9.30
2019-02-08T03:40:57.748Z,9.30
2019-02-08T03:43:29.675Z,9.30
2019-02-08T03:46:01.604Z,9.30
2019-02-08T03:48:33.470Z,9.30
2019-02-08T03:51:05.640Z,9.30
2019-02-08T03:53:37.425Z,9.40
2019-02-08T03:56:11.271Z,9.40
2019-02-08T03:58:43.142Z,9.40
2019-02-08T04:01:15.349Z,9.40
2019-02-08T04:03:47.237Z,9.40
2019-02-08T04:06:19.092Z,9.50
2019-02-08T04:08:50.896Z,9.50
2019-02-08T04:11:22.955Z,9.50
2019-02-08T04:13:54.723Z,9.50
2019-02-08T04:16:26.583Z,9.50
2019-02-08T04:18:58.392Z,9.50
2019-02-08T04:21:30.317Z,9.50
2019-02-08T04:24:02.319Z,9.60
2019-02-08T04:26:35.245Z,9.60
2019-02-08T04:29:07.112Z,9.60
2019-02-08T04:31:38.933Z,9.60
2019-02-08T04:34:10.796Z,9.60
2019-02-08T04:36:42.835Z,9.70
2019-02-08T04:39:14.649Z,9.70
2019-02-08T04:41:46.476Z,9.60
2019-02-08T04:44:18.392Z,9.70
2019-02-08T04:46:50.349Z,9.70
2019-02-08T04:49:22.112Z,9.60
2019-02-08T04:51:54.039Z,9.70
2019-02-08T04:54:25.913Z,9.70
2019-02-08T04:56:57.758Z,9.70
2019-02-08T04:59:29.561Z,9.70
2019-02-08T05:02:13.354Z,9.70
2019-02-08T05:04:45.366Z,8.20
2019-02-08T05:07:17.270Z,9.70
2019-02-08T05:09:49.144Z,9.70
2019-02-08T05:12:21.144Z,9.70
2019-02-08T05:14:52.984Z,9.60
2019-02-08T05:17:24.975Z,9.60
2019-02-08T05:19:56.796Z,9.60
2019-02-08T05:22:28.611Z,9.60
2019-02-08T05:25:00.552Z,9.50
2019-02-08T05:27:32.354Z,9.60
2019-02-08T05:30:06.410Z,9.50
2019-02-08T05:32:58.902Z,9.50
2019-02-08T05:35:30.841Z,9.50
2019-02-08T05:38:02.651Z,9.50
2019-02-08T05:40:34.534Z,9.40
2019-02-08T05:43:07.260Z,9.50
2019-02-08T05:45:39.343Z,9.50
2019-02-08T05:48:11.324Z,9.50
2019-02-08T05:50:43.347Z,9.50
2019-02-08T05:53:15.171Z,9.50
2019-02-08T05:55:47.099Z,9.50
2019-02-08T05:58:18.980Z,9.50
2019-02-08T06:00:53.736Z,9.50
2019-02-08T06:03:34.871Z,9.50
2019-02-08T06:06:07.209Z,9.40
2019-02-08T06:08:39.216Z,9.50
2019-02-08T06:11:11.212Z,9.50
2019-02-08T06:13:43.243Z,9.60
2019-02-08T06:16:15.097Z,9.60
2019-02-08T06:18:46.945Z,9.60
2019-02-08T06:21:18.881Z,9.60
2019-02-08T06:23:50.956Z,9.60
2019-02-08T06:26:23.053Z,9.60
2019-02-08T06:28:55.923Z,9.70
2019-02-08T06:31:31.003Z,9.60
2019-02-08T06:34:02.881Z,9.70
2019-02-08T06:36:36.277Z,9.70
2019-02-08T06:39:10.730Z,9.70
2019-02-08T06:41:42.762Z,9.70
2019-02-08T06:44:14.600Z,9.80
2019-02-08T06:46:46.427Z,9.80
2019-02-08T06:49:18.573Z,9.80
2019-02-08T06:51:50.389Z,9.80
2019-02-08T06:54:22.168Z,9.90
2019-02-08T06:57:03.228Z,9.90
2019-02-08T06:59:56.784Z,9.90
2019-02-08T07:02:41.649Z,9.90
2019-02-08T07:05:35.623Z,9.90
2019-02-08T07:08:15.909Z,10.00
2019-02-08T07:10:58.391Z,10.70
2019-02-08T07:13:54.200Z,9.90
2019-02-08T07:16:54.158Z,10.00
2019-02-08T07:19:40.474Z,10.00
2019-02-08T07:22:34.481Z,10.00
2019-02-08T07:25:20.699Z,10.00
2019-02-08T07:28:19.551Z,10.00
2019-02-08T07:31:28.357Z,10.10
2019-02-08T07:34:07.240Z,10.10
2019-02-08T07:37:02.218Z,10.10
2019-02-08T07:39:58.684Z,10.10
2019-02-08T07:43:05.605Z,10.10
2019-02-08T07:46:00.592Z,10.10
2019-02-08T07:48:57.980Z,10.10
2019-02-08T07:51:37.080Z,10.10
2019-02-08T07:54:23.135Z,10.20
2019-02-08T07:57:06.097Z,10.20
2019-02-08T07:59:55.632Z,10.20
2019-02-08T08:02:52.358Z,10.20
2019-02-08T08:05:39.319Z,10.20
2019-02-08T08:08:24.226Z,10.20
2019-02-08T08:11:05.098Z,10.30
2019-02-08T08:13:59.220Z,10.30
2019-02-08T08:16:52.920Z,10.30
2019-02-08T08:19:43.813Z,10.40
2019-02-08T08:22:33.012Z,10.40
2019-02-08T08:25:25.307Z,11.20
2019-02-08T08:28:07.637Z,10.50
2019-02-08T08:30:51.925Z,10.50
2019-02-08T08:33:59.319Z,10.50
2019-02-08T08:37:21.545Z,10.50
2019-02-08T08:40:37.848Z,10.50
2019-02-08T08:44:03.041Z,10.50
2019-02-08T08:47:32.816Z,10.40
2019-02-08T08:51:06.430Z,10.60
2019-02-08T08:54:25.684Z,10.60
2019-02-08T08:58:09.706Z,10.60
2019-02-08T09:01:30.592Z,10.60
2019-02-08T09:04:37.463Z,10.70
2019-02-08T09:07:40.525Z,10.70
2019-02-08T09:11:29.698Z,10.70
2019-02-08T09:15:25.019Z,10.70
2019-02-08T09:18:48.398Z,10.80
2019-02-08T09:22:06.776Z,10.90
2019-02-08T09:25:49.958Z,10.90
2019-02-08T09:29:20.440Z,10.90
2019-02-08T09:33:02.828Z,11.00
2019-02-08T09:36:38.570Z,11.00
2019-02-08T09:40:12.731Z,11.00
2019-02-08T09:43:45.971Z,10.50
2019-02-08T09:47:09.803Z,11.10
2019-02-08T09:50:43.285Z,11.20
2019-02-08T09:54:10.083Z,11.20
2019-02-08T09:57:48.356Z,11.30
2019-02-08T10:01:26.678Z,11.30
2019-02-08T10:05:17.666Z,11.30
2019-02-08T10:09:14.193Z,11.40
2019-02-08T10:13:01.232Z,11.40
2019-02-08T10:16:59.491Z,11.40
2019-02-08T10:20:43.827Z,11.50
2019-02-08T10:24:01.784Z,11.50
2019-02-08T10:27:30.364Z,11.60
2019-02-08T10:31:14.358Z,11.50
2019-02-08T10:34:50.461Z,11.60
2019-02-08T10:38:14.206Z,11.60
2019-02-08T10:41:44.132Z,11.60
2019-02-08T10:45:04.913Z,11.60
2019-02-08T10:49:05.303Z,11.50
2019-02-08T10:52:36.235Z,11.60
2019-02-08T10:56:15.886Z,11.60
2019-02-08T10:59:52.987Z,11.70
2019-02-08T11:03:27.239Z,11.70
2019-02-08T11:07:06.322Z,11.70
2019-02-08T11:10:49.745Z,11.70
2019-02-08T11:14:22.603Z,11.70
2019-02-08T11:17:56.417Z,11.80
2019-02-08T11:20:28.537Z,11.80
2019-02-08T11:23:00.591Z,11.80
2019-02-08T11:25:32.751Z,11.90
2019-02-08T11:28:04.688Z,11.90
2019-02-08T11:30:36.537Z,11.90
2019-02-08T11:33:08.848Z,11.90
2019-02-08T11:35:40.718Z,12.00
2019-02-08T11:38:12.572Z,12.00
2019-02-08T11:40:44.715Z,12.00
2019-02-08T11:43:17.184Z,12.00
2019-02-08T11:45:49.158Z,12.00
2019-02-08T11:48:21.231Z,12.00
2019-02-08T11:50:53.380Z,12.10
2019-02-08T11:53:25.481Z,12.10
2019-02-08T11:55:57.404Z,12.20
2019-02-08T11:58:29.908Z,12.20
2019-02-08T12:01:01.867Z,12.10
2019-02-08T12:03:34.189Z,12.20
2019-02-08T12:06:07.818Z,12.20
2019-02-08T12:08:39.740Z,12.20
2019-02-08T12:11:11.808Z,12.20
2019-02-08T12:13:43.772Z,12.10
2019-02-08T12:16:15.956Z,12.20
2019-02-08T12:18:48.131Z,12.20
2019-02-08T12:21:20.065Z,12.20
2019-02-08T12:23:52.189Z,12.20
2019-02-08T12:26:24.203Z,12.20
2019-02-08T12:28:56.031Z,12.20
2019-02-08T12:31:28.013Z,12.20
2019-02-08T12:33:59.940Z,12.20
2019-02-08T12:36:32.287Z,12.20
2019-02-08T12:39:05.637Z,12.20
2019-02-08T12:41:38.048Z,12.20
2019-02-08T12:44:10.647Z,12.20
2019-02-08T12:46:42.646Z,12.10
2019-02-08T12:49:14.687Z,12.20
2019-02-08T12:51:50.127Z,12.20
2019-02-08T12:54:22.228Z,12.20
2019-02-08T12:56:55.308Z,12.30
2019-02-08T12:59:29.850Z,12.10
2019-02-08T13:02:01.706Z,12.10
2019-02-08T13:04:34.808Z,12.10
2019-02-08T13:07:08.122Z,12.20
2019-02-08T13:09:43.932Z,12.30
2019-02-08T13:12:15.803Z,12.20
2019-02-08T13:14:48.090Z,12.20
2019-02-08T13:17:21.323Z,12.90
2019-02-08T13:19:53.310Z,12.20
2019-02-08T13:22:25.210Z,12.30
2019-02-08T13:24:57.105Z,13.40
2019-02-08T13:27:29.216Z,12.40
2019-02-08T13:30:01.203Z,12.40
2019-02-08T13:32:33.171Z,12.50
2019-02-08T13:35:05.691Z,12.50
2019-02-08T13:37:37.538Z,12.50
2019-02-08T13:40:12.476Z,12.50
2019-02-08T13:42:44.374Z,12.50
2019-02-08T13:45:17.253Z,12.50
2019-02-08T13:47:49.636Z,12.50
2019-02-08T13:50:24.595Z,12.50
2019-02-08T13:52:56.744Z,12.50
2019-02-08T13:55:29.305Z,12.60
2019-02-08T13:58:01.206Z,12.50
2019-02-08T14:00:36.893Z,12.60
2019-02-08T14:03:09.606Z,12.50
2019-02-08T14:05:41.906Z,12.40
2019-02-08T14:08:13.846Z,12.40
2019-02-08T14:10:46.287Z,12.40
2019-02-08T14:13:18.234Z,12.50
2019-02-08T14:15:50.131Z,12.40
2019-02-08T14:18:22.094Z,12.40
2019-02-08T14:20:54.214Z,12.30
2019-02-08T14:23:26.253Z,12.30
2019-02-08T14:25:58.209Z,12.20
2019-02-08T14:28:30.193Z,12.20
2019-02-08T14:31:02.168Z,12.10
2019-02-08T14:33:34.192Z,12.10
2019-02-08T14:36:06.783Z,12.10
2019-02-08T14:38:40.223Z,12.10
2019-02-08T14:41:12.202Z,12.00
2019-02-08T14:43:44.034Z,12.00
2019-02-08T14:46:17.202Z,12.00
2019-02-08T14:48:49.165Z,12.00
2019-02-08T14:51:21.138Z,11.90
2019-02-08T14:53:53.344Z,11.90
2019-02-08T14:56:25.404Z,11.80
2019-02-08T14:58:57.280Z,11.90
2019-02-08T15:01:29.166Z,11.90
2019-02-08T15:04:01.121Z,11.90
2019-02-08T15:06:33.066Z,11.90
2019-02-08T15:09:09.521Z,11.90
2019-02-08T15:11:41.495Z,11.90
2019-02-08T15:14:13.446Z,11.90
2019-02-08T15:16:45.572Z,11.90
2019-02-08T15:19:30.884Z,11.90
2019-02-08T15:22:04.784Z,11.90
2019-02-08T15:24:36.654Z,11.90
2019-02-08T15:27:08.528Z,11.90
2019-02-08T15:29:40.467Z,11.90
2019-02-08T15:32:12.337Z,11.90
2019-02-08T15:34:44.377Z,12.00
2019-02-08T15:37:16.253Z,11.90
2019-02-08T15:39:48.390Z,11.90
2019-02-08T15:42:20.361Z,11.90
2019-02-08T15:44:52.489Z,11.90
2019-02-08T15:47:24.513Z,11.90
2019-02-08T15:49:56.471Z,11.90
2019-02-08T15:52:28.457Z,11.90
2019-02-08T15:55:00.520Z,11.90
2019-02-08T15:57:32.592Z,11.90
2019-02-08T16:00:05.396Z,11.90
2019-02-08T16:02:37.733Z,11.80
2019-02-08T16:05:12.277Z,11.90
2019-02-08T16:07:44.475Z,11.90
2019-02-08T16:10:17.930Z,11.90
2019-02-08T16:12:49.850Z,11.90
2019-02-08T16:15:24.639Z,11.90
2019-02-08T16:17:58.009Z,11.90
2019-02-08T16:20:30.581Z,11.90
2019-02-08T16:23:03.003Z,11.90
2019-02-08T16:25:35.349Z,11.90
2019-02-08T16:28:07.906Z,11.90
2019-02-08T16:30:41.068Z,11.90
2019-02-08T16:33:13.107Z,11.90
2019-02-08T16:35:45.141Z,11.90
2019-02-08T16:38:17.267Z,11.90
2019-02-08T16:40:49.283Z,11.90
2019-02-08T16:43:22.297Z,11.90
2019-02-08T16:45:56.316Z,11.90
2019-02-08T16:48:30.459Z,11.90
2019-02-08T16:51:02.749Z,11.90
2019-02-08T16:53:34.621Z,11.90
2019-02-08T16:56:07.664Z,11.90
2019-02-08T16:58:39.652Z,11.80
2019-02-08T17:01:13.211Z,11.80
2019-02-08T17:03:45.127Z,11.80
2019-02-08T17:06:17.162Z,11.90
2019-02-08T17:08:49.351Z,11.90
2019-02-08T17:11:21.538Z,11.90
2019-02-08T17:13:53.686Z,11.90
2019-02-08T17:16:28.770Z,12.00
2019-02-08T17:19:00.857Z,11.90
2019-02-08T17:21:35.751Z,11.90
2019-02-08T17:24:09.127Z,11.90
2019-02-08T17:26:41.212Z,11.90
2019-02-08T17:29:13.225Z,12.00
2019-02-08T17:31:46.518Z,12.00
2019-02-08T17:34:18.344Z,11.90
2019-02-08T17:36:50.206Z,11.90
2019-02-08T17:39:23.416Z,12.00
2019-02-08T17:41:55.275Z,12.00
2019-02-08T17:44:27.158Z,12.00
2019-02-08T17:47:00.510Z,11.90
2019-02-08T17:49:32.609Z,11.90
2019-02-08T17:52:04.888Z,11.90
2019-02-08T17:54:36.820Z,11.90
2019-02-08T17:57:08.979Z,11.90
2019-02-08T17:59:41.065Z,11.90
2019-02-08T18:02:13.616Z,11.90
2019-02-08T18:04:45.706Z,11.90
2019-02-08T18:07:17.938Z,11.90
2019-02-08T18:09:49.777Z,11.90
2019-02-08T18:12:21.985Z,11.90
2019-02-08T18:14:54.169Z,11.90
2019-02-08T18:17:26.484Z,11.90
2019-02-08T18:19:59.523Z,11.90
2019-02-08T18:22:31.944Z,11.90
2019-02-08T18:25:05.430Z,11.90
2019-02-08T18:27:37.242Z,11.90
2019-02-08T18:30:11.868Z,11.90
2019-02-08T18:32:43.979Z,11.90
2019-02-08T18:35:16.096Z,11.90
2019-02-08T18:37:48.232Z,11.90
2019-02-08T18:40:20.819Z,11.90
2019-02-08T18:42:53.107Z,11.50
2019-02-08T18:45:29.018Z,12.00
2019-02-08T18:48:01.580Z,11.90
2019-02-08T18:50:40.074Z,11.90
2019-02-08T18:53:12.209Z,12.00
2019-02-08T18:55:44.302Z,11.90
2019-02-08T18:58:19.010Z,12.00
2019-02-08T19:00:51.736Z,11.90
2019-02-08T19:03:24.416Z,11.90
2019-02-08T19:05:56.793Z,11.90
2019-02-08T19:08:29.131Z,11.90
2019-02-08T19:11:01.158Z,11.90
2019-02-08T19:13:33.628Z,11.90
2019-02-08T19:16:05.854Z,11.90
2019-02-08T19:18:37.891Z,11.90
2019-02-08T19:21:11.759Z,11.90
2019-02-08T19:23:44.108Z,11.90
2019-02-08T19:26:16.533Z,11.90
2019-02-08T19:28:48.727Z,11.90
2019-02-08T19:31:21.926Z,11.90
2019-02-08T19:33:53.843Z,11.90
2019-02-08T19:36:25.963Z,11.90
2019-02-08T19:38:57.936Z,11.80
2019-02-08T19:41:31.227Z,11.90
2019-02-08T19:44:03.235Z,11.90
2019-02-08T19:46:35.171Z,11.90
2019-02-08T19:49:07.032Z,11.90
2019-02-08T19:51:39.024Z,11.90
2019-02-08T19:54:11.479Z,11.90
2019-02-08T19:56:43.843Z,11.90
2019-02-08T19:59:15.767Z,11.90
2019-02-08T20:01:47.989Z,12.00
2019-02-08T20:04:20.098Z,12.00
2019-02-08T20:06:52.017Z,12.00
2019-02-08T20:09:24.047Z,12.00
2019-02-08T20:11:56.283Z,11.90
2019-02-08T20:14:28.604Z,12.00
2019-02-08T20:17:00.890Z,12.00
2019-02-08T20:19:33.022Z,12.00
2019-02-08T20:22:05.927Z,12.00
2019-02-08T20:24:38.272Z,12.00
2019-02-08T20:27:11.058Z,12.00
2019-02-08T20:29:43.332Z,11.90
2019-02-08T20:32:15.845Z,11.90
2019-02-08T20:34:48.179Z,11.90
2019-02-08T20:37:20.365Z,11.90
2019-02-08T20:39:52.696Z,11.90
2019-02-08T20:42:25.140Z,11.90
2019-02-08T20:44:58.774Z,11.90
2019-02-08T20:47:31.138Z,11.90
2019-02-08T20:50:03.255Z,11.90
2019-02-08T20:52:35.900Z,11.80
2019-02-08T20:55:08.967Z,11.80
2019-02-08T20:57:41.213Z,11.90
2019-02-08T21:00:25.048Z,11.80
2019-02-08T21:03:00.615Z,11.80
2019-02-08T21:05:32.957Z,11.80
2019-02-08T21:08:06.582Z,11.80
2019-02-08T21:10:39.355Z,11.80
2019-02-08T21:13:13.010Z,11.80
2019-02-08T21:15:45.448Z,11.80
2019-02-08T21:18:19.183Z,11.80
2019-02-08T21:20:51.448Z,11.80
2019-02-08T21:23:23.717Z,11.80
2019-02-08T21:25:56.162Z,11.80
2019-02-08T21:28:28.135Z,11.80
2019-02-08T21:31:00.041Z,11.80
2019-02-08T21:33:32.036Z,11.80
2019-02-08T21:36:04.516Z,11.80
2019-02-08T21:38:36.412Z,11.80
2019-02-08T21:41:09.701Z,11.80
2019-02-08T21:43:41.735Z,11.80
2019-02-08T21:46:13.985Z,11.80
2019-02-08T21:48:46.111Z,11.80
2019-02-08T21:51:18.095Z,11.80
2019-02-08T21:53:50.307Z,11.80
2019-02-08T21:56:22.410Z,11.80
2019-02-08T21:58:54.536Z,11.80
2019-02-08T22:01:26.827Z,11.80
2019-02-08T22:03:58.879Z,11.80
2019-02-08T22:06:30.996Z,11.80
2019-02-08T22:09:03.282Z,11.80
2019-02-08T22:11:35.523Z,11.80
2019-02-08T22:14:07.613Z,11.80
2019-02-08T22:16:39.748Z,12.30
2019-02-08T22:19:11.938Z,11.80
2019-02-08T22:21:43.919Z,11.70
2019-02-08T22:24:15.887Z,11.20
2019-02-08T22:26:47.849Z,10.60
2019-02-08T22:29:20.355Z,11.70
2019-02-08T22:31:52.363Z,11.70
2019-02-08T22:34:24.251Z,11.70
2019-02-08T22:36:56.258Z,11.70
2019-02-08T22:39:28.609Z,11.70
2019-02-08T22:42:00.620Z,11.60
2019-02-08T22:44:33.660Z,11.60
2019-02-08T22:47:05.865Z,11.50
2019-02-08T22:49:37.892Z,11.50
2019-02-08T22:52:10.079Z,11.50
2019-02-08T22:54:42.448Z,11.40
2019-02-08T22:57:14.461Z,11.50
2019-02-08T22:59:46.780Z,11.40
2019-02-08T23:02:18.775Z,11.40
2019-02-08T23:04:50.682Z,11.40
2019-02-08T23:07:22.535Z,11.30
2019-02-08T23:09:54.565Z,11.30
2019-02-08T23:12:26.762Z,11.30
2019-02-08T23:14:58.776Z,11.30
2019-02-08T23:17:30.768Z,11.20
2019-02-08T23:20:02.937Z,11.20
2019-02-08T23:22:35.332Z,11.20
2019-02-08T23:25:08.400Z,11.10
2019-02-08T23:27:40.498Z,10.60
2019-02-08T23:30:13.073Z,11.10
2019-02-08T23:32:45.259Z,11.00
2019-02-08T23:35:17.705Z,11.00
2019-02-08T23:37:49.624Z,11.00
2019-02-08T23:40:21.638Z,11.00
2019-02-08T23:42:53.621Z,10.90
2019-02-08T23:45:31.431Z,10.90
2019-02-08T23:48:03.311Z,10.90
2019-02-08T23:50:35.416Z,10.90
2019-02-08T23:53:09.358Z,10.90
2019-02-08T23:55:41.263Z,10.80
2019-02-08T23:58:13.287Z,10.70
